Time;durP1;ratioP1;P1;durP2;ratioP2;P2;SDS_P1;SDS_P2;PMS_P1;PMS_P2;Temp;Humidity;BMP_temperature;BMP_pressure;BME280_temperature;BME280_humidity;BME280_pressure;Samples;Min_cycle;Max_cycle;Signal;HPM_P1;HPM_P2
2022/08/27 00:02:13;;;;;;;12.43;6.93;;;18.10;88.60;;;;;;5096024;28;20529;-48
2022/08/27 00:04:40;;;;;;;9.57;3.40;;;18.10;88.30;;;;;;5095959;28;20024;-47
2022/08/27 00:07:06;;;;;;;7.18;3.03;;;18.10;88.60;;;;;;5096381;28;20032;-46
2022/08/27 00:09:33;;;;;;;15.57;7.43;;;18.10;88.50;;;;;;5095930;28;20061;-46
2022/08/27 00:11:58;;;;;;;11.05;3.75;;;18.20;88.30;;;;;;5095832;28;20028;-47
2022/08/27 00:14:26;;;;;;;10.02;3.60;;;18.20;88.30;;;;;;5095698;28;20034;-47
2022/08/27 00:16:52;;;;;;;8.00;4.80;;;18.10;88.30;;;;;;5095630;28;20050;-46
2022/08/27 00:19:18;;;;;;;6.45;4.40;;;18.10;88.60;;;;;;5096146;28;20032;-46
2022/08/27 00:21:43;;;;;;;4.82;3.20;;;18.10;88.80;;;;;;5094218;28;20028;-47
2022/08/27 00:24:11;;;;;;;8.73;3.67;;;18.10;88.60;;;;;;5096090;28;20403;-46
2022/08/27 00:26:36;;;;;;;8.10;3.38;;;17.90;88.90;;;;;;5094211;28;20055;-46
2022/08/27 00:29:03;;;;;;;8.45;4.03;;;17.80;89.20;;;;;;5095833;28;20054;-46
2022/08/27 00:31:28;;;;;;;9.48;4.90;;;17.80;89.50;;;;;;5095548;28;20077;-48
2022/08/27 00:33:54;;;;;;;4.13;3.30;;;17.90;89.70;;;;;;5095623;28;20032;-49
2022/08/27 00:36:20;;;;;;;6.68;4.05;;;17.80;89.30;;;;;;5094401;28;20031;-46
2022/08/27 00:38:47;;;;;;;5.88;3.80;;;17.80;89.40;;;;;;5095283;28;20038;-46
2022/08/27 00:41:13;;;;;;;5.60;4.13;;;17.80;89.70;;;;;;5094943;28;20081;-46
2022/08/27 00:44:00;;;;;;;8.23;4.00;;;17.70;89.50;;;;;;5095357;28;20020;-45
2022/08/27 00:46:54;;;;;;;5.32;3.92;;;17.70;89.50;;;;;;5095554;28;20036;-47
2022/08/27 00:49:29;;;;;;;13.15;4.13;;;17.70;89.50;;;;;;5095095;28;20376;-45
2022/08/27 00:52:03;;;;;;;6.13;3.30;;;17.70;89.60;;;;;;5095285;28;20077;-47
2022/08/27 00:54:29;;;;;;;5.35;3.55;;;17.70;89.40;;;;;;5094995;28;20016;-48
2022/08/27 00:56:56;;;;;;;9.02;4.32;;;17.70;89.50;;;;;;5095024;28;20028;-46
2022/08/27 00:59:24;;;;;;;13.80;4.57;;;17.70;89.60;;;;;;5095406;28;20020;-47
2022/08/27 01:04:38;;;;;;;9.95;3.80;;;17.70;89.50;;;;;;5095460;28;20089;-47
2022/08/27 01:07:04;;;;;;;13.10;4.55;;;17.70;89.80;;;;;;5094912;28;20056;-47
2022/08/27 01:09:30;;;;;;;12.13;4.70;;;17.80;89.60;;;;;;5094726;28;20012;-45
2022/08/27 01:11:57;;;;;;;8.25;4.32;;;17.80;89.20;;;;;;5094983;28;20050;-49
2022/08/27 01:14:23;;;;;;;5.97;3.70;;;17.80;89.40;;;;;;5093547;28;20468;-47
2022/08/27 01:16:53;;;;;;;16.02;4.78;;;17.80;89.30;;;;;;5094539;28;20059;-47
2022/08/27 01:19:32;;;;;;;10.35;4.28;;;17.80;89.30;;;;;;5093426;28;20060;-46
2022/08/27 01:22:04;;;;;;;11.43;3.72;;;17.80;88.90;;;;;;5094779;28;20070;-47
2022/08/27 01:24:44;;;;;;;9.30;3.50;;;17.80;88.70;;;;;;5094325;28;20047;-45
2022/08/27 01:27:14;;;;;;;9.55;3.08;;;17.70;88.70;;;;;;5093315;28;20106;-48
2022/08/27 01:29:41;;;;;;;;;;;17.50;88.90;;;;;;5094900;28;20028;-45
2022/08/27 01:32:14;;;;;;;9.40;4.03;;;17.50;89.00;;;;;;5094809;28;19999;-46
2022/08/27 01:34:43;;;;;;;5.78;2.63;;;17.60;88.80;;;;;;5094463;28;20024;-47
2022/08/27 01:37:12;;;;;;;16.15;3.15;;;17.60;88.50;;;;;;5094679;28;20032;-47
2022/08/27 01:39:40;;;;;;;10.80;4.05;;;17.60;88.60;;;;;;5094485;28;20081;-46
2022/08/27 01:42:29;;;;;;;6.15;3.13;;;17.60;88.50;;;;;;5094204;28;20434;-48
2022/08/27 01:45:18;;;;;;;7.45;3.38;;;17.50;88.20;;;;;;5094355;28;20035;-47
2022/08/27 01:47:43;;;;;;;5.10;2.58;;;17.70;88.40;;;;;;5094688;28;20027;-48
2022/08/27 01:50:16;;;;;;;7.90;3.13;;;17.70;88.40;;;;;;5094419;28;20119;-48
2022/08/27 01:52:42;;;;;;;5.10;2.50;;;17.70;88.20;;;;;;5094050;28;20073;-47
2022/08/27 01:55:11;;;;;;;9.38;2.67;;;17.80;87.80;;;;;;5094615;28;20024;-45
2022/08/27 01:57:38;;;;;;;7.10;2.65;;;17.80;87.40;;;;;;5092625;28;20028;-46
2022/08/27 02:00:09;;;;;;;4.82;2.53;;;17.80;87.40;;;;;;5094112;28;20062;-46
2022/08/27 02:02:34;;;;;;;6.38;2.75;;;17.90;86.90;;;;;;5094373;28;20074;-46
2022/08/27 02:05:00;;;;;;;7.43;2.20;;;17.80;87.10;;;;;;5093974;28;20371;-46
2022/08/27 02:07:26;;;;;;;9.48;2.60;;;17.80;87.00;;;;;;5093635;28;20482;-45
2022/08/27 02:09:52;;;;;;;3.55;2.35;;;17.80;87.00;;;;;;5093791;28;20024;-47
2022/08/27 02:12:17;;;;;;;9.43;2.72;;;17.80;86.50;;;;;;5093631;28;20024;-45
2022/08/27 02:14:43;;;;;;;2.40;1.95;;;17.80;86.20;;;;;;5093689;28;20107;-45
2022/08/27 02:17:11;;;;;;;6.03;1.92;;;17.80;85.50;;;;;;5094455;28;20456;-46
2022/08/27 02:19:37;;;;;;;4.78;1.90;;;17.80;85.30;;;;;;5093500;28;20028;-46
2022/08/27 02:22:03;;;;;;;7.75;1.92;;;17.80;85.50;;;;;;5091882;28;20028;-46
2022/08/27 02:24:28;;;;;;;10.05;2.20;;;17.80;85.20;;;;;;5093181;28;20024;-46
2022/08/27 02:26:54;;;;;;;12.50;3.13;;;17.80;85.50;;;;;;5093266;28;20020;-46
2022/08/27 02:29:21;;;;;;;9.05;2.08;;;17.90;85.30;;;;;;5093199;28;20020;-47
2022/08/27 02:31:46;;;;;;;6.35;2.22;;;18.00;84.20;;;;;;5093343;28;20463;-46
2022/08/27 02:34:12;;;;;;;9.27;3.72;;;18.10;84.10;;;;;;5093179;28;20024;-45
2022/08/27 02:36:38;;;;;;;6.35;2.13;;;18.10;83.40;;;;;;5091895;28;20032;-45
2022/08/27 02:39:05;;;;;;;6.15;1.98;;;18.00;83.50;;;;;;5093032;28;20028;-46
2022/08/27 02:41:31;;;;;;;10.25;2.40;;;17.90;83.90;;;;;;5093089;28;20068;-47
2022/08/27 02:43:57;;;;;;;5.00;1.30;;;17.90;84.20;;;;;;5093092;28;20503;-49
2022/08/27 02:46:22;;;;;;;6.57;2.85;;;18.00;84.20;;;;;;5092984;28;20024;-47
2022/08/27 02:48:48;;;;;;;6.90;1.95;;;18.00;83.10;;;;;;5092925;28;20059;-47
2022/08/27 02:51:14;;;;;;;1.98;1.63;;;17.90;83.40;;;;;;5093204;28;20047;-46
2022/08/27 02:53:41;;;;;;;7.90;2.20;;;18.00;83.30;;;;;;5093004;28;20421;-48
2022/08/27 02:56:07;;;;;;;5.13;1.77;;;18.00;82.90;;;;;;5093568;28;20045;-46
2022/08/27 02:58:33;;;;;;;6.68;1.92;;;17.90;82.80;;;;;;5092877;28;20383;-47
2022/08/27 03:01:03;;;;;;;3.75;2.13;;;18.00;83.00;;;;;;5091537;28;20161;-46
2022/08/27 03:03:30;;;;;;;3.88;2.05;;;18.00;83.00;;;;;;5093986;28;20055;-47
2022/08/27 03:05:57;;;;;;;7.47;1.83;;;18.00;82.80;;;;;;5097204;28;20124;-48
2022/08/27 03:08:25;;;;;;;5.90;2.58;;;18.00;82.90;;;;;;5097122;28;20031;-46
2022/08/27 03:10:52;;;;;;;10.02;1.90;;;17.90;82.90;;;;;;5097051;28;20017;-47
2022/08/27 03:13:18;;;;;;;4.38;1.40;;;17.90;82.70;;;;;;5096823;28;20032;-48
2022/08/27 03:15:44;;;;;;;7.18;2.00;;;18.00;83.00;;;;;;5096807;28;20035;-49
2022/08/27 03:18:18;;;;;;;9.77;2.22;;;18.10;82.30;;;;;;5096777;28;20024;-46
2022/08/27 03:20:49;;;;;;;5.13;1.20;;;18.00;82.70;;;;;;5096985;28;20051;-47
2022/08/27 03:23:16;;;;;;;7.22;1.90;;;18.10;82.90;;;;;;5096576;28;20024;-47
2022/08/27 03:25:50;;;;;;;8.73;1.70;;;18.10;82.60;;;;;;5096853;28;20380;-48
2022/08/27 03:28:16;;;;;;;2.75;1.45;;;18.10;82.00;;;;;;5096942;28;20517;-51
2022/08/27 03:30:44;;;;;;;3.75;1.38;;;18.10;81.70;;;;;;5096505;28;20026;-47
2022/08/27 03:33:11;;;;;;;6.95;1.98;;;18.10;81.80;;;;;;5095044;28;20028;-47
2022/08/27 03:35:36;;;;;;;7.18;1.75;;;18.20;81.40;;;;;;5096340;28;20032;-48
2022/08/27 03:38:02;;;;;;;6.78;1.75;;;18.10;81.50;;;;;;5096311;28;20020;-47
2022/08/27 03:40:28;;;;;;;6.07;2.05;;;18.10;81.50;;;;;;5096366;28;20024;-47
2022/08/27 03:42:54;;;;;;;3.58;1.83;;;18.20;81.70;;;;;;5095909;28;20098;-48
2022/08/27 03:45:20;;;;;;;2.50;1.52;;;18.30;81.30;;;;;;5096205;28;20096;-47
2022/08/27 03:47:45;;;;;;;3.75;1.65;;;18.30;80.60;;;;;;5096385;28;20083;-46
2022/08/27 03:50:11;;;;;;;6.80;1.98;;;18.20;80.90;;;;;;5096090;28;20379;-47
2022/08/27 03:52:37;;;;;;;3.85;1.33;;;18.20;81.20;;;;;;5096383;28;20089;-47
2022/08/27 03:55:06;;;;;;;11.77;2.45;;;18.20;81.70;;;;;;5096251;28;20035;-47
2022/08/27 03:57:32;;;;;;;7.13;2.20;;;18.10;81.70;;;;;;5095905;28;20078;-48
2022/08/27 03:59:59;;;;;;;7.95;1.83;;;18.10;81.40;;;;;;5094601;28;20476;-47
2022/08/27 04:02:25;;;;;;;10.13;3.00;;;18.20;81.00;;;;;;5095604;28;20024;-49
2022/08/27 04:04:51;;;;;;;8.48;1.85;;;18.20;80.70;;;;;;5095701;28;20020;-48
2022/08/27 04:07:17;;;;;;;5.82;1.65;;;18.30;80.40;;;;;;5095960;28;20021;-47
2022/08/27 04:09:42;;;;;;;5.82;1.73;;;18.30;80.10;;;;;;5095697;28;20024;-51
2022/08/27 04:12:08;;;;;;;6.75;2.65;;;18.40;79.40;;;;;;5095594;28;20024;-48
2022/08/27 04:14:34;;;;;;;6.25;2.85;;;18.30;79.90;;;;;;5095404;28;20032;-46
2022/08/27 04:17:00;;;;;;;6.85;1.35;;;18.30;79.70;;;;;;5095822;28;20024;-47
2022/08/27 04:19:29;;;;;;;7.15;1.73;;;18.30;79.40;;;;;;5095831;28;20028;-48
2022/08/27 04:21:59;;;;;;;4.15;1.45;;;18.30;79.30;;;;;;5095606;28;20035;-48
2022/08/27 04:24:25;;;;;;;7.05;2.15;;;18.20;79.50;;;;;;5095464;28;20046;-47
2022/08/27 04:26:50;;;;;;;7.65;1.85;;;18.10;79.50;;;;;;5095557;28;20020;-47
2022/08/27 04:29:16;;;;;;;6.03;2.17;;;18.10;79.80;;;;;;5095306;28;20031;-38
2022/08/27 04:31:42;;;;;;;7.40;2.10;;;18.20;79.90;;;;;;5095313;28;20391;-38
2022/08/27 18:42:10;;;;;;;1.85;1.10;;;20.90;58.00;;;;;;5070357;28;20416;-46
2022/08/27 18:44:39;;;;;;;8.43;3.55;;;21.00;58.10;;;;;;5070282;28;20029;-45
2022/08/27 18:47:05;;;;;;;3.72;1.40;;;21.00;57.90;;;;;;5070102;28;20025;-46
2022/08/27 18:49:31;;;;;;;5.72;1.85;;;21.00;57.80;;;;;;5069867;28;20087;-47
2022/08/27 18:51:58;;;;;;;3.80;1.40;;;21.00;57.80;;;;;;5070166;28;20017;-47
2022/08/27 18:54:23;;;;;;;5.03;1.42;;;21.10;57.70;;;;;;5069968;28;20449;-47
2022/08/27 18:56:50;;;;;;;10.07;2.60;;;21.10;57.70;;;;;;5070228;28;20025;-48
2022/08/27 18:59:16;;;;;;;8.52;2.40;;;21.10;57.60;;;;;;5069669;28;20021;-47
2022/08/27 19:01:42;;;;;;;8.95;2.13;;;21.10;57.60;;;;;;5069922;28;20162;-46
2022/08/27 19:04:09;;;;;;;3.78;1.20;;;21.00;57.80;;;;;;5069961;28;20033;-46
2022/08/27 19:06:35;;;;;;;5.30;2.00;;;21.10;57.90;;;;;;5069444;28;20020;-49
2022/08/27 19:09:02;;;;;;;4.60;2.10;;;21.00;57.80;;;;;;5069469;28;20029;-47
2022/08/27 19:11:29;;;;;;;5.82;3.25;;;21.00;58.00;;;;;;5069706;28;20486;-46
2022/08/27 19:13:54;;;;;;;10.43;2.45;;;21.00;57.90;;;;;;5069893;28;20060;-46
2022/08/27 19:16:32;;;;;;;5.75;1.75;;;21.00;58.00;;;;;;5069349;28;20025;-54
2022/08/27 19:18:59;;;;;;;3.85;2.05;;;21.00;58.10;;;;;;5051578;28;20036;-45
2022/08/27 19:21:25;;;;;;;6.43;2.88;;;20.90;58.10;;;;;;5068414;28;20063;-46
2022/08/27 19:23:52;;;;;;;8.68;1.88;;;21.00;58.20;;;;;;5068609;28;20021;-47
2022/08/27 19:26:22;;;;;;;3.40;1.27;;;20.90;58.30;;;;;;5068396;28;20421;-48
2022/08/27 19:28:48;;;;;;;4.68;1.38;;;20.90;58.40;;;;;;5069885;28;20052;-46
2022/08/27 19:31:14;;;;;;;4.10;1.30;;;20.90;58.30;;;;;;5069842;28;20075;-47
2022/08/27 19:33:40;;;;;;;4.53;1.55;;;21.00;58.30;;;;;;5070755;28;20114;-46
2022/08/27 19:36:07;;;;;;;4.00;1.35;;;20.90;58.40;;;;;;5068757;28;20104;-47
2022/08/27 19:38:34;;;;;;;7.18;2.70;;;20.90;58.50;;;;;;5069528;28;20085;-49
2022/08/27 19:41:01;;;;;;;4.97;2.78;;;20.90;58.70;;;;;;5069579;28;20515;-50
2022/08/27 19:43:27;;;;;;;3.05;1.40;;;20.80;58.60;;;;;;5069940;28;20021;-46
2022/08/27 19:45:54;;;;;;;5.80;1.75;;;20.80;58.50;;;;;;5069279;28;20150;-48
2022/08/27 19:48:20;;;;;;;5.32;1.63;;;20.80;58.70;;;;;;5035097;28;20086;-48
2022/08/27 19:50:46;;;;;;;4.22;1.65;;;20.80;58.80;;;;;;5069418;28;20029;-53
2022/08/27 19:53:11;;;;;;;7.40;1.95;;;20.80;58.70;;;;;;5057885;28;20036;-50
2022/08/27 19:55:37;;;;;;;7.68;1.80;;;20.80;58.80;;;;;;5057239;28;20035;-47
2022/08/27 19:58:03;;;;;;;5.45;2.08;;;20.80;58.90;;;;;;5056197;28;20131;-49
2022/08/27 20:00:29;;;;;;;3.47;1.50;;;20.80;59.10;;;;;;5055900;28;20025;-51
2022/08/27 20:02:55;;;;;;;5.53;2.13;;;20.80;59.00;;;;;;5056206;28;20025;-49
2022/08/27 20:05:21;;;;;;;9.68;2.65;;;20.80;58.80;;;;;;5056478;28;20078;-47
2022/08/27 20:07:51;;;;;;;7.30;2.10;;;20.80;58.60;;;;;;5056525;28;20020;-49
2022/08/27 20:10:22;;;;;;;;;;;20.80;59.10;;;;;;5056604;28;20117;-51
2022/08/27 20:12:48;;;;;;;7.47;2.10;;;20.70;59.00;;;;;;5055739;28;20050;-47
2022/08/27 20:15:13;;;;;;;5.68;1.65;;;20.70;59.10;;;;;;5055637;28;20056;-49
2022/08/27 20:17:39;;;;;;;2.38;1.30;;;20.70;58.80;;;;;;5053957;28;20040;-49
2022/08/27 20:20:06;;;;;;;6.00;1.88;;;20.60;59.00;;;;;;5053734;28;20025;-46
2022/08/27 20:22:32;;;;;;;9.05;1.58;;;20.60;59.10;;;;;;5055185;28;20017;-49
2022/08/27 20:24:57;;;;;;;4.10;1.45;;;20.60;59.20;;;;;;5054921;28;20032;-47
2022/08/27 20:27:23;;;;;;;4.45;1.33;;;20.50;59.30;;;;;;5054734;28;20025;-48
2022/08/27 20:29:49;;;;;;;7.68;1.50;;;20.50;59.40;;;;;;5054744;28;20052;-47
2022/08/27 20:32:15;;;;;;;10.57;2.85;;;20.50;59.00;;;;;;5054853;28;20025;-46
2022/08/27 20:34:40;;;;;;;4.80;1.15;;;20.40;59.40;;;;;;5054649;28;20441;-47
2022/08/27 20:37:06;;;;;;;4.07;1.27;;;20.40;59.50;;;;;;5054969;28;20032;-46
2022/08/27 20:39:32;;;;;;;8.85;2.13;;;20.30;59.40;;;;;;5054692;28;20104;-47
2022/08/27 20:41:58;;;;;;;4.82;1.20;;;20.30;59.20;;;;;;5054948;28;20045;-47
2022/08/27 20:44:24;;;;;;;3.70;1.23;;;20.40;59.10;;;;;;5054554;28;20101;-47
2022/08/27 20:46:54;;;;;;;2.80;1.10;;;20.30;59.00;;;;;;5054850;28;20021;-47
2022/08/27 20:49:20;;;;;;;2.90;1.27;;;20.30;59.10;;;;;;5054609;28;20476;-49
2022/08/27 20:51:46;;;;;;;3.85;1.33;;;20.30;59.20;;;;;;5053187;28;20094;-50
2022/08/27 20:54:12;;;;;;;4.65;1.48;;;20.30;59.20;;;;;;5053630;28;20036;-48
2022/08/27 20:56:37;;;;;;;4.43;1.42;;;20.30;59.30;;;;;;5053007;28;20025;-48
2022/08/27 21:01:54;;;;;;;5.65;1.63;;;20.30;59.40;;;;;;5068899;28;20117;-50
2022/08/27 21:04:20;;;;;;;5.82;1.77;;;20.20;59.40;;;;;;5053067;28;20254;-48
2022/08/27 21:06:46;;;;;;;12.45;2.95;;;20.20;59.40;;;;;;5054753;28;20035;-49
2022/08/27 21:09:11;;;;;;;1.70;1.17;;;20.10;59.60;;;;;;5054627;28;20032;-48
2022/08/27 21:11:37;;;;;;;4.18;1.13;;;20.10;59.60;;;;;;5054444;28;20021;-48
2022/08/27 21:14:03;;;;;;;7.07;1.65;;;20.00;59.70;;;;;;5054262;28;20108;-47
2022/08/27 21:16:28;;;;;;;3.40;1.30;;;20.00;59.90;;;;;;5054641;28;20087;-47
2022/08/27 21:18:54;;;;;;;8.07;1.27;;;20.00;59.90;;;;;;5053979;28;20025;-51
2022/08/27 21:21:20;;;;;;;7.07;1.00;;;19.90;60.00;;;;;;5054085;28;20029;-48
2022/08/27 21:23:47;;;;;;;6.50;1.38;;;19.90;60.10;;;;;;5054266;28;20090;-50
2022/08/27 21:26:13;;;;;;;12.77;2.70;;;19.90;60.10;;;;;;5054274;28;20021;-47
2022/08/27 21:28:41;;;;;;;1.38;0.70;;;19.90;60.20;;;;;;5054274;28;20438;-47
2022/08/27 21:31:07;;;;;;;5.25;2.05;;;19.90;60.10;;;;;;5053920;28;20082;-47
2022/08/27 21:33:34;;;;;;;5.25;1.20;;;19.90;60.10;;;;;;5052963;28;20025;-47
2022/08/27 21:36:04;;;;;;;11.23;1.45;;;19.80;60.30;;;;;;5053739;28;20052;-48
2022/08/27 21:38:30;;;;;;;4.97;1.70;;;19.80;60.10;;;;;;5053703;28;20079;-52
2022/08/27 21:40:56;;;;;;;5.15;1.35;;;19.80;60.30;;;;;;5053147;28;20056;-49
2022/08/27 21:43:22;;;;;;;6.20;1.20;;;19.80;60.30;;;;;;5053763;28;20385;-49
2022/08/27 21:45:53;;;;;;;5.43;1.67;;;19.80;60.20;;;;;;5053747;28;20031;-47
2022/08/27 21:48:19;;;;;;;12.52;3.92;;;19.70;60.50;;;;;;5052311;28;20040;-52
2022/08/27 21:50:45;;;;;;;3.22;1.63;;;19.70;60.70;;;;;;5051946;28;20025;-47
2022/08/27 21:53:11;;;;;;;5.45;1.63;;;19.60;60.70;;;;;;5053478;28;20051;-49
2022/08/27 21:55:36;;;;;;;10.82;1.85;;;19.50;61.00;;;;;;5054010;28;20025;-49
2022/08/27 21:58:03;;;;;;;6.55;1.25;;;19.50;61.10;;;;;;5053306;28;20050;-48
2022/08/27 22:00:31;;;;;;;4.57;1.77;;;19.50;61.10;;;;;;5053461;28;20059;-48
2022/08/27 22:02:58;;;;;;;10.32;2.65;;;19.50;61.20;;;;;;5053834;28;20033;-48
2022/08/27 22:05:24;;;;;;;7.70;1.48;;;19.40;61.40;;;;;;5052192;28;20025;-46
2022/08/27 22:07:51;;;;;;;3.22;1.17;;;19.40;61.60;;;;;;5052778;28;20082;-47
2022/08/27 22:10:17;;;;;;;4.88;1.50;;;19.40;61.60;;;;;;5052227;28;20029;-46
2022/08/27 22:12:46;;;;;;;6.13;1.10;;;19.30;62.00;;;;;;5052077;28;20028;-47
2022/08/27 22:15:13;;;;;;;6.82;1.55;;;19.20;62.30;;;;;;5051820;28;20039;-46
2022/08/27 22:17:39;;;;;;;6.63;1.52;;;19.20;62.50;;;;;;5053098;28;20091;-46
2022/08/27 22:20:07;;;;;;;9.90;3.28;;;19.20;62.50;;;;;;5051642;28;20025;-47
2022/08/27 22:22:33;;;;;;;4.43;1.55;;;19.10;62.50;;;;;;5053093;28;20021;-47
2022/08/27 22:24:59;;;;;;;7.65;1.52;;;19.00;62.60;;;;;;5053677;28;20519;-47
2022/08/27 22:27:25;;;;;;;12.65;2.70;;;19.00;62.70;;;;;;5051824;28;20029;-46
2022/08/27 22:29:51;;;;;;;4.15;1.50;;;18.90;62.70;;;;;;5053197;28;20032;-46
2022/08/27 22:32:16;;;;;;;3.22;1.30;;;18.90;62.70;;;;;;5052585;28;20465;-46
2022/08/27 22:34:42;;;;;;;7.32;1.65;;;18.80;62.90;;;;;;5052731;28;20028;-47
2022/08/27 22:37:08;;;;;;;6.03;1.45;;;18.70;63.00;;;;;;5052560;28;20027;-45
2022/08/27 22:39:34;;;;;;;4.93;1.95;;;18.60;62.90;;;;;;5051430;28;20055;-49
2022/08/27 22:41:59;;;;;;;8.77;2.10;;;18.70;63.10;;;;;;5052340;28;20040;-47
2022/08/27 22:44:28;;;;;;;6.45;2.90;;;18.60;63.00;;;;;;5053037;28;20411;-47
2022/08/27 22:46:54;;;;;;;4.85;1.77;;;18.60;62.90;;;;;;5052629;28;20095;-47
2022/08/27 22:49:19;;;;;;;8.77;1.77;;;18.50;63.10;;;;;;5052760;28;20029;-46
2022/08/27 22:51:45;;;;;;;8.98;1.98;;;18.40;63.40;;;;;;5052784;28;20049;-47
2022/08/27 22:54:11;;;;;;;3.70;1.90;;;18.30;63.60;;;;;;5053302;28;20121;-46
2022/08/27 22:56:36;;;;;;;7.50;2.17;;;18.30;63.80;;;;;;5052827;28;20071;-47
2022/08/27 22:59:03;;;;;;;11.65;2.63;;;18.30;64.00;;;;;;5053154;28;20036;-46
2022/08/27 23:01:28;;;;;;;4.82;2.17;;;18.20;64.10;;;;;;5052803;28;20067;-48
2022/08/27 23:03:54;;;;;;;7.28;2.20;;;18.20;64.30;;;;;;5052932;28;20025;-45
2022/08/27 23:06:20;;;;;;;8.20;2.40;;;18.20;64.30;;;;;;5052521;28;20079;-47
2022/08/27 23:08:46;;;;;;;4.70;2.35;;;18.20;64.30;;;;;;5053271;28;20369;-47
2022/08/27 23:11:11;;;;;;;7.53;2.30;;;18.20;64.20;;;;;;5053010;28;20025;-46
2022/08/27 23:13:39;;;;;;;5.70;1.75;;;18.20;64.40;;;;;;5053150;28;20033;-47
2022/08/27 23:16:05;;;;;;;12.10;3.05;;;18.10;64.40;;;;;;5052830;28;20103;-48
2022/08/27 23:18:31;;;;;;;13.57;3.17;;;18.10;64.70;;;;;;5052941;28;20096;-48
2022/08/27 23:20:57;;;;;;;12.23;3.47;;;18.10;64.80;;;;;;5052731;28;20028;-49
2022/08/27 23:23:23;;;;;;;11.43;4.20;;;18.10;64.80;;;;;;5052784;28;20025;-49
2022/08/27 23:28:33;;;;;;;7.75;2.03;;;18.00;65.00;;;;;;5055989;28;20028;-47
2022/08/27 23:30:59;;;;;;;9.20;3.58;;;18.00;65.10;;;;;;5056465;28;20033;-48
2022/08/27 23:33:25;;;;;;;9.55;3.15;;;18.00;65.10;;;;;;5056517;28;20100;-48
2022/08/27 23:35:50;;;;;;;6.65;2.60;;;17.90;65.40;;;;;;5056080;28;20025;-48
2022/08/27 23:38:18;;;;;;;13.15;2.70;;;17.80;65.60;;;;;;5056351;28;20028;-47
2022/08/27 23:40:45;;;;;;;10.35;2.67;;;17.80;65.70;;;;;;5055750;28;20137;-46
2022/08/27 23:43:11;;;;;;;6.95;2.65;;;17.80;65.80;;;;;;5056252;28;20044;-49
2022/08/27 23:45:37;;;;;;;11.07;3.95;;;17.80;65.90;;;;;;5056771;28;20027;-47
2022/08/27 23:48:03;;;;;;;6.25;2.33;;;17.80;66.00;;;;;;5056750;28;20373;-47
2022/08/27 23:50:30;;;;;;;8.70;3.08;;;17.80;66.00;;;;;;5055797;28;20032;-47
2022/08/27 23:52:56;;;;;;;7.50;2.83;;;17.70;66.00;;;;;;5056164;28;20033;-46
2022/08/27 23:55:22;;;;;;;6.20;2.65;;;17.60;66.20;;;;;;5055895;28;20051;-46
2022/08/27 23:57:50;;;;;;;7.80;2.70;;;17.60;66.40;;;;;;5054389;28;20378;-47
